sensor_id;sensor_type;location;lat;lon;timestamp;P1;durP1;ratioP1;P2;durP2;ratioP2
78885;SDS011;68269;52.514;5.722;2023-08-21T00:01:03;2.80;;;0.52;;
78885;SDS011;68269;52.514;5.722;2023-08-21T00:03:32;1.98;;;0.52;;
78885;SDS011;68269;52.514;5.722;2023-08-21T00:06:01;1.27;;;0.45;;
78885;SDS011;68269;52.514;5.722;2023-08-21T00:08:33;3.45;;;0.45;;
78885;SDS011;68269;52.514;5.722;2023-08-21T00:11:03;3.13;;;0.57;;
78885;SDS011;68269;52.514;5.722;2023-08-21T00:13:32;2.15;;;0.68;;
78885;SDS011;68269;52.514;5.722;2023-08-21T00:16:01;7.03;;;0.95;;
78885;SDS011;68269;52.514;5.722;2023-08-21T00:18:31;3.60;;;0.57;;
78885;SDS011;68269;52.514;5.722;2023-08-21T00:21:01;1.33;;;0.40;;
78885;SDS011;68269;52.514;5.722;2023-08-21T00:23:33;1.65;;;0.52;;
78885;SDS011;68269;52.514;5.722;2023-08-21T00:26:02;3.72;;;0.73;;
78885;SDS011;68269;52.514;5.722;2023-08-21T00:28:31;3.75;;;0.73;;
78885;SDS011;68269;52.514;5.722;2023-08-21T00:31:01;6.40;;;0.80;;
78885;SDS011;68269;52.514;5.722;2023-08-21T00:33:30;1.90;;;0.52;;
78885;SDS011;68269;52.514;5.722;2023-08-21T00:36:00;1.42;;;0.40;;
78885;SDS011;68269;52.514;5.722;2023-08-21T00:38:33;2.25;;;0.55;;
78885;SDS011;68269;52.514;5.722;2023-08-21T00:41:02;2.20;;;0.60;;
78885;SDS011;68269;52.514;5.722;2023-08-21T00:43:32;3.80;;;0.70;;
78885;SDS011;68269;52.514;5.722;2023-08-21T00:46:01;4.05;;;0.90;;
78885;SDS011;68269;52.514;5.722;2023-08-21T00:48:31;3.92;;;0.65;;
78885;SDS011;68269;52.514;5.722;2023-08-21T00:51:01;2.95;;;0.60;;
78885;SDS011;68269;52.514;5.722;2023-08-21T00:53:35;4.28;;;0.50;;
78885;SDS011;68269;52.514;5.722;2023-08-21T00:56:04;4.03;;;0.60;;
78885;SDS011;68269;52.514;5.722;2023-08-21T00:58:33;2.30;;;0.73;;
78885;SDS011;68269;52.514;5.722;2023-08-21T01:01:04;5.20;;;0.70;;
78885;SDS011;68269;52.514;5.722;2023-08-21T01:03:33;2.08;;;0.60;;
78885;SDS011;68269;52.514;5.722;2023-08-21T01:06:02;2.38;;;0.47;;
78885;SDS011;68269;52.514;5.722;2023-08-21T01:08:38;4.30;;;0.70;;
78885;SDS011;68269;52.514;5.722;2023-08-21T01:11:18;4.53;;;0.73;;
78885;SDS011;68269;52.514;5.722;2023-08-21T01:13:54;0.88;;;0.25;;
78885;SDS011;68269;52.514;5.722;2023-08-21T01:16:32;2.75;;;0.52;;
78885;SDS011;68269;52.514;5.722;2023-08-21T01:19:02;2.13;;;0.40;;
78885;SDS011;68269;52.514;5.722;2023-08-21T01:21:38;2.25;;;0.60;;
78885;SDS011;68269;52.514;5.722;2023-08-21T01:24:10;3.17;;;0.63;;
78885;SDS011;68269;52.514;5.722;2023-08-21T01:26:40;2.38;;;0.65;;
78885;SDS011;68269;52.514;5.722;2023-08-21T01:29:09;3.35;;;0.73;;
78885;SDS011;68269;52.514;5.722;2023-08-21T01:31:39;2.35;;;0.52;;
78885;SDS011;68269;52.514;5.722;2023-08-21T01:34:11;3.35;;;0.60;;
78885;SDS011;68269;52.514;5.722;2023-08-21T01:36:43;2.90;;;0.57;;
78885;SDS011;68269;52.514;5.722;2023-08-21T01:39:16;3.22;;;0.50;;
78885;SDS011;68269;52.514;5.722;2023-08-21T01:41:45;2.60;;;0.60;;
78885;SDS011;68269;52.514;5.722;2023-08-21T01:44:14;4.13;;;0.85;;
78885;SDS011;68269;52.514;5.722;2023-08-21T01:46:44;2.60;;;0.70;;
78885;SDS011;68269;52.514;5.722;2023-08-21T01:49:14;2.40;;;0.55;;
78885;SDS011;68269;52.514;5.722;2023-08-21T01:51:45;2.90;;;0.65;;
78885;SDS011;68269;52.514;5.722;2023-08-21T01:54:17;2.35;;;0.47;;
78885;SDS011;68269;52.514;5.722;2023-08-21T01:56:46;1.65;;;0.45;;
78885;SDS011;68269;52.514;5.722;2023-08-21T01:59:16;2.40;;;0.40;;
78885;SDS011;68269;52.514;5.722;2023-08-21T02:01:45;0.85;;;0.40;;
78885;SDS011;68269;52.514;5.722;2023-08-21T02:04:15;1.92;;;0.40;;
78885;SDS011;68269;52.514;5.722;2023-08-21T02:06:44;2.90;;;0.68;;
78885;SDS011;68269;52.514;5.722;2023-08-21T02:09:13;4.25;;;0.70;;
78885;SDS011;68269;52.514;5.722;2023-08-21T02:11:45;1.83;;;0.43;;
78885;SDS011;68269;52.514;5.722;2023-08-21T02:14:14;4.03;;;0.90;;
78885;SDS011;68269;52.514;5.722;2023-08-21T02:16:44;4.25;;;0.90;;
78885;SDS011;68269;52.514;5.722;2023-08-21T02:19:13;3.85;;;0.65;;
78885;SDS011;68269;52.514;5.722;2023-08-21T02:21:43;2.67;;;0.65;;
78885;SDS011;68269;52.514;5.722;2023-08-21T02:24:12;2.22;;;0.38;;
78885;SDS011;68269;52.514;5.722;2023-08-21T02:26:46;7.55;;;1.00;;
78885;SDS011;68269;52.514;5.722;2023-08-21T02:29:15;2.45;;;0.52;;
78885;SDS011;68269;52.514;5.722;2023-08-21T02:31:45;2.85;;;0.50;;
78885;SDS011;68269;52.514;5.722;2023-08-21T02:34:14;3.50;;;0.60;;
78885;SDS011;68269;52.514;5.722;2023-08-21T02:36:46;1.95;;;0.55;;
78885;SDS011;68269;52.514;5.722;2023-08-21T02:39:15;2.42;;;0.60;;
78885;SDS011;68269;52.514;5.722;2023-08-21T02:41:47;1.65;;;0.40;;
78885;SDS011;68269;52.514;5.722;2023-08-21T02:44:16;2.25;;;0.55;;
78885;SDS011;68269;52.514;5.722;2023-08-21T02:46:46;2.08;;;0.52;;
78885;SDS011;68269;52.514;5.722;2023-08-21T02:49:16;2.90;;;0.63;;
78885;SDS011;68269;52.514;5.722;2023-08-21T02:51:45;2.65;;;0.47;;
78885;SDS011;68269;52.514;5.722;2023-08-21T02:54:14;2.08;;;0.50;;
78885;SDS011;68269;52.514;5.722;2023-08-21T02:56:46;3.95;;;0.60;;
78885;SDS011;68269;52.514;5.722;2023-08-21T02:59:17;4.53;;;0.77;;
78885;SDS011;68269;52.514;5.722;2023-08-21T03:01:46;3.13;;;0.52;;
78885;SDS011;68269;52.514;5.722;2023-08-21T03:04:16;2.83;;;0.65;;
78885;SDS011;68269;52.514;5.722;2023-08-21T03:06:45;2.15;;;0.70;;
78885;SDS011;68269;52.514;5.722;2023-08-21T03:09:15;2.40;;;0.65;;
78885;SDS011;68269;52.514;5.722;2023-08-21T03:11:47;6.05;;;0.73;;
78885;SDS011;68269;52.514;5.722;2023-08-21T03:14:16;1.65;;;0.40;;
78885;SDS011;68269;52.514;5.722;2023-08-21T03:16:46;2.17;;;0.30;;
78885;SDS011;68269;52.514;5.722;2023-08-21T03:19:15;3.03;;;0.70;;
78885;SDS011;68269;52.514;5.722;2023-08-21T03:21:44;2.42;;;0.68;;
78885;SDS011;68269;52.514;5.722;2023-08-21T03:24:14;3.45;;;0.52;;
78885;SDS011;68269;52.514;5.722;2023-08-21T03:26:43;3.20;;;0.80;;
78885;SDS011;68269;52.514;5.722;2023-08-21T03:29:15;2.85;;;0.63;;
78885;SDS011;68269;52.514;5.722;2023-08-21T03:31:46;2.92;;;0.52;;
78885;SDS011;68269;52.514;5.722;2023-08-21T03:34:17;2.85;;;0.55;;
78885;SDS011;68269;52.514;5.722;2023-08-21T03:36:48;5.28;;;0.70;;
78885;SDS011;68269;52.514;5.722;2023-08-21T03:39:18;3.88;;;0.63;;
78885;SDS011;68269;52.514;5.722;2023-08-21T03:41:50;2.35;;;0.63;;
78885;SDS011;68269;52.514;5.722;2023-08-21T03:44:19;2.35;;;0.60;;
78885;SDS011;68269;52.514;5.722;2023-08-21T03:46:48;1.42;;;0.45;;
78885;SDS011;68269;52.514;5.722;2023-08-21T03:49:18;4.07;;;0.75;;
78885;SDS011;68269;52.514;5.722;2023-08-21T03:51:48;4.70;;;0.90;;
78885;SDS011;68269;52.514;5.722;2023-08-21T03:54:17;4.43;;;0.77;;
78885;SDS011;68269;52.514;5.722;2023-08-21T03:56:49;2.55;;;0.70;;
78885;SDS011;68269;52.514;5.722;2023-08-21T03:59:21;4.30;;;0.80;;
78885;SDS011;68269;52.514;5.722;2023-08-21T04:01:53;3.22;;;0.75;;
78885;SDS011;68269;52.514;5.722;2023-08-21T04:04:22;2.33;;;0.40;;
78885;SDS011;68269;52.514;5.722;2023-08-21T04:06:51;4.40;;;0.70;;
78885;SDS011;68269;52.514;5.722;2023-08-21T04:09:21;3.95;;;0.70;;
78885;SDS011;68269;52.514;5.722;2023-08-21T04:11:53;4.80;;;0.77;;
78885;SDS011;68269;52.514;5.722;2023-08-21T04:14:22;3.85;;;0.82;;
78885;SDS011;68269;52.514;5.722;2023-08-21T04:16:52;2.35;;;0.65;;
78885;SDS011;68269;52.514;5.722;2023-08-21T04:19:22;2.42;;;0.63;;
78885;SDS011;68269;52.514;5.722;2023-08-21T04:21:55;2.63;;;0.45;;
78885;SDS011;68269;52.514;5.722;2023-08-21T04:24:25;2.53;;;0.70;;
78885;SDS011;68269;52.514;5.722;2023-08-21T04:26:56;3.25;;;0.70;;
78885;SDS011;68269;52.514;5.722;2023-08-21T04:29:26;2.50;;;0.73;;
78885;SDS011;68269;52.514;5.722;2023-08-21T04:31:55;3.40;;;0.70;;
78885;SDS011;68269;52.514;5.722;2023-08-21T04:34:25;4.78;;;1.00;;
78885;SDS011;68269;52.514;5.722;2023-08-21T04:36:54;5.53;;;1.05;;
78885;SDS011;68269;52.514;5.722;2023-08-21T04:39:23;3.60;;;0.77;;
78885;SDS011;68269;52.514;5.722;2023-08-21T04:41:53;3.35;;;0.88;;
78885;SDS011;68269;52.514;5.722;2023-08-21T04:44:26;4.03;;;0.80;;
78885;SDS011;68269;52.514;5.722;2023-08-21T04:46:58;3.83;;;0.85;;
78885;SDS011;68269;52.514;5.722;2023-08-21T04:49:48;4.15;;;0.90;;
78885;SDS011;68269;52.514;5.722;2023-08-21T04:52:17;6.07;;;0.98;;
78885;SDS011;68269;52.514;5.722;2023-08-21T04:54:47;3.72;;;0.98;;
78885;SDS011;68269;52.514;5.722;2023-08-21T04:57:20;3.35;;;0.63;;
78885;SDS011;68269;52.514;5.722;2023-08-21T04:59:50;5.97;;;0.85;;
78885;SDS011;68269;52.514;5.722;2023-08-21T05:02:21;3.80;;;0.63;;
78885;SDS011;68269;52.514;5.722;2023-08-21T05:04:52;5.78;;;1.08;;
78885;SDS011;68269;52.514;5.722;2023-08-21T05:07:21;3.80;;;0.77;;
78885;SDS011;68269;52.514;5.722;2023-08-21T05:09:51;3.90;;;0.82;;
78885;SDS011;68269;52.514;5.722;2023-08-21T05:12:23;2.90;;;0.60;;
78885;SDS011;68269;52.514;5.722;2023-08-21T05:14:53;5.05;;;0.98;;
78885;SDS011;68269;52.514;5.722;2023-08-21T05:17:23;5.70;;;0.95;;
78885;SDS011;68269;52.514;5.722;2023-08-21T05:19:54;5.10;;;0.80;;
78885;SDS011;68269;52.514;5.722;2023-08-21T05:22:24;3.85;;;0.98;;
78885;SDS011;68269;52.514;5.722;2023-08-21T05:24:53;4.50;;;0.88;;
78885;SDS011;68269;52.514;5.722;2023-08-21T05:27:25;6.45;;;1.40;;
78885;SDS011;68269;52.514;5.722;2023-08-21T05:29:55;5.20;;;1.17;;
78885;SDS011;68269;52.514;5.722;2023-08-21T05:32:24;4.70;;;1.02;;
78885;SDS011;68269;52.514;5.722;2023-08-21T05:34:54;4.07;;;0.88;;
78885;SDS011;68269;52.514;5.722;2023-08-21T05:37:23;4.63;;;0.95;;
78885;SDS011;68269;52.514;5.722;2023-08-21T05:39:54;6.75;;;1.38;;
78885;SDS011;68269;52.514;5.722;2023-08-21T05:42:26;5.65;;;0.88;;
78885;SDS011;68269;52.514;5.722;2023-08-21T05:44:56;4.55;;;1.20;;
78885;SDS011;68269;52.514;5.722;2023-08-21T05:47:27;3.97;;;1.13;;
78885;SDS011;68269;52.514;5.722;2023-08-21T05:49:57;4.00;;;1.10;;
78885;SDS011;68269;52.514;5.722;2023-08-21T05:52:26;4.65;;;0.93;;
78885;SDS011;68269;52.514;5.722;2023-08-21T05:54:55;8.00;;;1.40;;
78885;SDS011;68269;52.514;5.722;2023-08-21T05:57:27;4.70;;;1.10;;
78885;SDS011;68269;52.514;5.722;2023-08-21T05:59:57;3.13;;;0.70;;
78885;SDS011;68269;52.514;5.722;2023-08-21T06:02:29;5.30;;;1.10;;
78885;SDS011;68269;52.514;5.722;2023-08-21T06:05:00;3.60;;;1.08;;
78885;SDS011;68269;52.514;5.722;2023-08-21T06:07:29;3.63;;;1.10;;
78885;SDS011;68269;52.514;5.722;2023-08-21T06:10:00;4.22;;;1.10;;
78885;SDS011;68269;52.514;5.722;2023-08-21T06:12:33;5.10;;;1.30;;
78885;SDS011;68269;52.514;5.722;2023-08-21T06:15:02;3.92;;;1.02;;
78885;SDS011;68269;52.514;5.722;2023-08-21T06:17:32;7.47;;;1.50;;
78885;SDS011;68269;52.514;5.722;2023-08-21T06:20:02;4.95;;;1.23;;
78885;SDS011;68269;52.514;5.722;2023-08-21T06:22:31;4.85;;;1.40;;
78885;SDS011;68269;52.514;5.722;2023-08-21T06:25:01;3.75;;;1.08;;
78885;SDS011;68269;52.514;5.722;2023-08-21T06:27:33;7.30;;;2.17;;
78885;SDS011;68269;52.514;5.722;2023-08-21T06:30:02;6.20;;;1.63;;
78885;SDS011;68269;52.514;5.722;2023-08-21T06:32:32;8.80;;;2.00;;
78885;SDS011;68269;52.514;5.722;2023-08-21T06:35:02;5.07;;;1.55;;
78885;SDS011;68269;52.514;5.722;2023-08-21T06:37:31;6.75;;;1.52;;
78885;SDS011;68269;52.514;5.722;2023-08-21T06:40:01;11.70;;;1.88;;
78885;SDS011;68269;52.514;5.722;2023-08-21T06:42:33;8.25;;;1.83;;
78885;SDS011;68269;52.514;5.722;2023-08-21T06:45:03;8.50;;;1.60;;
78885;SDS011;68269;52.514;5.722;2023-08-21T06:47:33;5.55;;;1.30;;
78885;SDS011;68269;52.514;5.722;2023-08-21T06:50:03;7.10;;;1.67;;
78885;SDS011;68269;52.514;5.722;2023-08-21T06:52:32;7.30;;;1.83;;
78885;SDS011;68269;52.514;5.722;2023-08-21T06:55:02;6.57;;;1.92;;
78885;SDS011;68269;52.514;5.722;2023-08-21T06:57:34;4.90;;;1.15;;
78885;SDS011;68269;52.514;5.722;2023-08-21T07:00:04;3.88;;;0.82;;
78885;SDS011;68269;52.514;5.722;2023-08-21T07:02:35;6.75;;;1.80;;
78885;SDS011;68269;52.514;5.722;2023-08-21T07:05:04;5.60;;;1.30;;
78885;SDS011;68269;52.514;5.722;2023-08-21T07:07:34;5.00;;;1.17;;
78885;SDS011;68269;52.514;5.722;2023-08-21T07:10:03;7.57;;;1.35;;
78885;SDS011;68269;52.514;5.722;2023-08-21T07:12:36;6.32;;;1.30;;
78885;SDS011;68269;52.514;5.722;2023-08-21T07:15:06;8.82;;;1.40;;
78885;SDS011;68269;52.514;5.722;2023-08-21T07:17:36;4.60;;;0.93;;
78885;SDS011;68269;52.514;5.722;2023-08-21T07:20:06;10.82;;;1.55;;
78885;SDS011;68269;52.514;5.722;2023-08-21T07:22:37;6.65;;;1.40;;
78885;SDS011;68269;52.514;5.722;2023-08-21T07:25:07;4.80;;;1.17;;
78885;SDS011;68269;52.514;5.722;2023-08-21T07:27:40;5.10;;;1.15;;
78885;SDS011;68269;52.514;5.722;2023-08-21T07:30:09;5.97;;;1.40;;
78885;SDS011;68269;52.514;5.722;2023-08-21T07:32:39;9.23;;;1.75;;
78885;SDS011;68269;52.514;5.722;2023-08-21T07:35:08;12.27;;;1.40;;
78885;SDS011;68269;52.514;5.722;2023-08-21T07:37:38;7.90;;;1.48;;
78885;SDS011;68269;52.514;5.722;2023-08-21T07:40:07;5.03;;;1.40;;
78885;SDS011;68269;52.514;5.722;2023-08-21T07:42:40;7.78;;;1.30;;
78885;SDS011;68269;52.514;5.722;2023-08-21T07:45:09;9.85;;;1.65;;
78885;SDS011;68269;52.514;5.722;2023-08-21T07:47:39;8.00;;;1.27;;
78885;SDS011;68269;52.514;5.722;2023-08-21T07:50:08;7.78;;;1.08;;
78885;SDS011;68269;52.514;5.722;2023-08-21T07:52:39;4.57;;;1.08;;
78885;SDS011;68269;52.514;5.722;2023-08-21T07:55:09;5.53;;;1.10;;
78885;SDS011;68269;52.514;5.722;2023-08-21T07:57:41;4.78;;;0.95;;
78885;SDS011;68269;52.514;5.722;2023-08-21T08:00:11;4.38;;;1.02;;
78885;SDS011;68269;52.514;5.722;2023-08-21T08:02:42;6.00;;;1.10;;
78885;SDS011;68269;52.514;5.722;2023-08-21T08:05:11;7.15;;;1.35;;
78885;SDS011;68269;52.514;5.722;2023-08-21T08:07:41;6.15;;;1.00;;
78885;SDS011;68269;52.514;5.722;2023-08-21T08:10:10;4.40;;;0.95;;
78885;SDS011;68269;52.514;5.722;2023-08-21T08:12:43;6.70;;;1.08;;
78885;SDS011;68269;52.514;5.722;2023-08-21T08:15:12;4.13;;;1.05;;
78885;SDS011;68269;52.514;5.722;2023-08-21T08:17:42;6.40;;;1.30;;
78885;SDS011;68269;52.514;5.722;2023-08-21T08:20:11;7.18;;;1.33;;
78885;SDS011;68269;52.514;5.722;2023-08-21T08:22:41;4.30;;;1.10;;
78885;SDS011;68269;52.514;5.722;2023-08-21T08:25:10;5.35;;;1.13;;
78885;SDS011;68269;52.514;5.722;2023-08-21T08:27:39;6.47;;;1.20;;
78885;SDS011;68269;52.514;5.722;2023-08-21T08:30:12;5.65;;;1.15;;
78885;SDS011;68269;52.514;5.722;2023-08-21T08:32:42;6.50;;;1.35;;
78885;SDS011;68269;52.514;5.722;2023-08-21T08:35:12;6.43;;;1.00;;
78885;SDS011;68269;52.514;5.722;2023-08-21T08:37:42;5.55;;;0.90;;
78885;SDS011;68269;52.514;5.722;2023-08-21T08:40:12;3.90;;;0.70;;
78885;SDS011;68269;52.514;5.722;2023-08-21T08:42:44;5.80;;;1.13;;
78885;SDS011;68269;52.514;5.722;2023-08-21T08:45:13;3.30;;;0.73;;
78885;SDS011;68269;52.514;5.722;2023-08-21T08:47:42;5.10;;;0.85;;
78885;SDS011;68269;52.514;5.722;2023-08-21T08:50:12;4.00;;;0.75;;
78885;SDS011;68269;52.514;5.722;2023-08-21T08:52:42;6.07;;;0.90;;
78885;SDS011;68269;52.514;5.722;2023-08-21T08:55:12;4.22;;;0.85;;
78885;SDS011;68269;52.514;5.722;2023-08-21T08:57:44;3.08;;;0.63;;
78885;SDS011;68269;52.514;5.722;2023-08-21T09:00:14;6.00;;;0.93;;
78885;SDS011;68269;52.514;5.722;2023-08-21T09:02:44;2.97;;;0.70;;
78885;SDS011;68269;52.514;5.722;2023-08-21T09:05:13;5.13;;;0.95;;
78885;SDS011;68269;52.514;5.722;2023-08-21T09:07:42;3.85;;;0.70;;
78885;SDS011;68269;52.514;5.722;2023-08-21T09:10:12;4.00;;;0.80;;
78885;SDS011;68269;52.514;5.722;2023-08-21T09:12:47;5.32;;;0.88;;
78885;SDS011;68269;52.514;5.722;2023-08-21T09:15:16;3.83;;;0.70;;
78885;SDS011;68269;52.514;5.722;2023-08-21T09:17:52;4.32;;;0.95;;
78885;SDS011;68269;52.514;5.722;2023-08-21T09:20:22;7.97;;;1.10;;
78885;SDS011;68269;52.514;5.722;2023-08-21T09:22:52;5.47;;;1.10;;
78885;SDS011;68269;52.514;5.722;2023-08-21T09:25:23;6.28;;;1.10;;
78885;SDS011;68269;52.514;5.722;2023-08-21T09:27:57;4.72;;;0.70;;
78885;SDS011;68269;52.514;5.722;2023-08-21T09:30:26;4.45;;;0.85;;
78885;SDS011;68269;52.514;5.722;2023-08-21T09:32:56;4.47;;;0.98;;
78885;SDS011;68269;52.514;5.722;2023-08-21T09:35:28;5.72;;;1.00;;
78885;SDS011;68269;52.514;5.722;2023-08-21T09:38:01;7.28;;;1.10;;
78885;SDS011;68269;52.514;5.722;2023-08-21T09:40:32;3.08;;;0.60;;
78885;SDS011;68269;52.514;5.722;2023-08-21T09:43:04;3.40;;;0.75;;
78885;SDS011;68269;52.514;5.722;2023-08-21T09:45:33;10.05;;;1.25;;
78885;SDS011;68269;52.514;5.722;2023-08-21T09:48:03;5.20;;;0.90;;
78885;SDS011;68269;52.514;5.722;2023-08-21T09:50:34;6.85;;;1.00;;
78885;SDS011;68269;52.514;5.722;2023-08-21T09:53:05;4.00;;;1.02;;
78885;SDS011;68269;52.514;5.722;2023-08-21T09:55:35;4.90;;;0.80;;
78885;SDS011;68269;52.514;5.722;2023-08-21T09:58:09;4.45;;;0.85;;
78885;SDS011;68269;52.514;5.722;2023-08-21T10:00:40;4.80;;;0.90;;
78885;SDS011;68269;52.514;5.722;2023-08-21T10:03:10;6.18;;;0.68;;
78885;SDS011;68269;52.514;5.722;2023-08-21T10:05:40;5.20;;;0.60;;
78885;SDS011;68269;52.514;5.722;2023-08-21T10:08:10;2.40;;;0.50;;
78885;SDS011;68269;52.514;5.722;2023-08-21T10:10:40;6.97;;;0.80;;
78885;SDS011;68269;52.514;5.722;2023-08-21T10:13:12;3.97;;;1.00;;
78885;SDS011;68269;52.514;5.722;2023-08-21T10:15:42;3.13;;;0.47;;
78885;SDS011;68269;52.514;5.722;2023-08-21T10:18:19;3.83;;;0.63;;
78885;SDS011;68269;52.514;5.722;2023-08-21T10:20:50;8.30;;;1.02;;
78885;SDS011;68269;52.514;5.722;2023-08-21T10:23:24;3.63;;;0.65;;
78885;SDS011;68269;52.514;5.722;2023-08-21T10:25:55;4.90;;;0.70;;
78885;SDS011;68269;52.514;5.722;2023-08-21T10:28:27;7.57;;;1.25;;
78885;SDS011;68269;52.514;5.722;2023-08-21T10:33:56;3.88;;;0.90;;
78885;SDS011;68269;52.514;5.722;2023-08-21T10:39:53;3.78;;;0.80;;
78885;SDS011;68269;52.514;5.722;2023-08-21T10:42:39;4.38;;;0.90;;
78885;SDS011;68269;52.514;5.722;2023-08-21T10:45:15;9.55;;;1.20;;
78885;SDS011;68269;52.514;5.722;2023-08-21T10:47:44;5.60;;;0.90;;
78885;SDS011;68269;52.514;5.722;2023-08-21T10:50:16;2.90;;;0.88;;
78885;SDS011;68269;52.514;5.722;2023-08-21T10:52:45;2.28;;;0.50;;
78885;SDS011;68269;52.514;5.722;2023-08-21T10:55:16;5.72;;;0.82;;
78885;SDS011;68269;52.514;5.722;2023-08-21T10:57:46;5.57;;;0.82;;
78885;SDS011;68269;52.514;5.722;2023-08-21T11:00:19;3.90;;;0.70;;
78885;SDS011;68269;52.514;5.722;2023-08-21T11:02:50;4.95;;;0.85;;
78885;SDS011;68269;52.514;5.722;2023-08-21T11:05:19;3.35;;;0.75;;
78885;SDS011;68269;52.514;5.722;2023-08-21T11:07:48;7.10;;;0.82;;
78885;SDS011;68269;52.514;5.722;2023-08-21T11:10:18;4.00;;;0.73;;
78885;SDS011;68269;52.514;5.722;2023-08-21T11:12:51;3.53;;;0.70;;
78885;SDS011;68269;52.514;5.722;2023-08-21T11:15:24;2.75;;;0.52;;
78885;SDS011;68269;52.514;5.722;2023-08-21T11:17:54;2.65;;;0.55;;
78885;SDS011;68269;52.514;5.722;2023-08-21T11:20:28;7.93;;;0.80;;
78885;SDS011;68269;52.514;5.722;2023-08-21T11:22:58;4.80;;;0.65;;
78885;SDS011;68269;52.514;5.722;2023-08-21T11:25:28;5.78;;;0.70;;
78885;SDS011;68269;52.514;5.722;2023-08-21T11:27:57;5.22;;;0.63;;
78885;SDS011;68269;52.514;5.722;2023-08-21T11:30:31;3.08;;;0.50;;
78885;SDS011;68269;52.514;5.722;2023-08-21T11:33:04;4.13;;;0.80;;
78885;SDS011;68269;52.514;5.722;2023-08-21T11:35:34;7.10;;;0.80;;
78885;SDS011;68269;52.514;5.722;2023-08-21T11:38:04;5.18;;;0.80;;
78885;SDS011;68269;52.514;5.722;2023-08-21T11:40:34;2.63;;;0.63;;
78885;SDS011;68269;52.514;5.722;2023-08-21T11:43:04;5.63;;;0.47;;
78885;SDS011;68269;52.514;5.722;2023-08-21T11:45:37;3.80;;;0.70;;
78885;SDS011;68269;52.514;5.722;2023-08-21T11:48:06;5.70;;;0.60;;
78885;SDS011;68269;52.514;5.722;2023-08-21T11:50:36;2.53;;;0.60;;
78885;SDS011;68269;52.514;5.722;2023-08-21T11:53:05;1.35;;;0.50;;
78885;SDS011;68269;52.514;5.722;2023-08-21T11:55:36;2.72;;;0.40;;
78885;SDS011;68269;52.514;5.722;2023-08-21T11:58:06;4.63;;;0.70;;
78885;SDS011;68269;52.514;5.722;2023-08-21T12:00:39;5.25;;;0.60;;
78885;SDS011;68269;52.514;5.722;2023-08-21T12:03:09;3.38;;;0.47;;
78885;SDS011;68269;52.514;5.722;2023-08-21T12:05:42;5.63;;;0.50;;
78885;SDS011;68269;52.514;5.722;2023-08-21T12:08:12;3.08;;;0.68;;
78885;SDS011;68269;52.514;5.722;2023-08-21T12:10:41;2.63;;;0.60;;
78885;SDS011;68269;52.514;5.722;2023-08-21T12:13:12;1.00;;;0.28;;
78885;SDS011;68269;52.514;5.722;2023-08-21T12:15:44;2.17;;;0.30;;
78885;SDS011;68269;52.514;5.722;2023-08-21T12:18:13;1.15;;;0.30;;
78885;SDS011;68269;52.514;5.722;2023-08-21T12:20:42;2.97;;;0.38;;
78885;SDS011;68269;52.514;5.722;2023-08-21T12:23:12;0.55;;;0.30;;
78885;SDS011;68269;52.514;5.722;2023-08-21T12:25:41;3.72;;;0.40;;
78885;SDS011;68269;52.514;5.722;2023-08-21T12:28:10;4.78;;;0.50;;
78885;SDS011;68269;52.514;5.722;2023-08-21T12:30:40;3.42;;;0.45;;
78885;SDS011;68269;52.514;5.722;2023-08-21T12:33:12;1.33;;;0.25;;
78885;SDS011;68269;52.514;5.722;2023-08-21T12:35:41;2.58;;;0.30;;
78885;SDS011;68269;52.514;5.722;2023-08-21T12:38:11;3.97;;;0.30;;
78885;SDS011;68269;52.514;5.722;2023-08-21T12:40:40;2.72;;;0.40;;
78885;SDS011;68269;52.514;5.722;2023-08-21T12:43:10;2.55;;;0.50;;
78885;SDS011;68269;52.514;5.722;2023-08-21T12:45:39;6.25;;;0.77;;
78885;SDS011;68269;52.514;5.722;2023-08-21T12:48:11;6.70;;;0.60;;
78885;SDS011;68269;52.514;5.722;2023-08-21T12:50:41;7.18;;;0.55;;
78885;SDS011;68269;52.514;5.722;2023-08-21T12:53:10;3.65;;;0.50;;
78885;SDS011;68269;52.514;5.722;2023-08-21T12:55:39;1.50;;;0.40;;
78885;SDS011;68269;52.514;5.722;2023-08-21T12:58:09;3.63;;;0.45;;
78885;SDS011;68269;52.514;5.722;2023-08-21T13:00:39;4.65;;;0.60;;
78885;SDS011;68269;52.514;5.722;2023-08-21T13:03:08;6.43;;;0.63;;
78885;SDS011;68269;52.514;5.722;2023-08-21T13:05:40;5.13;;;0.47;;
78885;SDS011;68269;52.514;5.722;2023-08-21T13:08:10;5.50;;;0.50;;
78885;SDS011;68269;52.514;5.722;2023-08-21T13:10:39;3.85;;;0.43;;
78885;SDS011;68269;52.514;5.722;2023-08-21T13:13:09;2.15;;;0.40;;
78885;SDS011;68269;52.514;5.722;2023-08-21T13:15:38;3.22;;;0.50;;
78885;SDS011;68269;52.514;5.722;2023-08-21T13:18:12;3.95;;;0.40;;
78885;SDS011;68269;52.514;5.722;2023-08-21T13:20:42;4.95;;;0.60;;
78885;SDS011;68269;52.514;5.722;2023-08-21T13:23:11;1.67;;;0.30;;
78885;SDS011;68269;52.514;5.722;2023-08-21T13:25:41;3.08;;;0.30;;
78885;SDS011;68269;52.514;5.722;2023-08-21T13:28:10;3.38;;;0.73;;
78885;SDS011;68269;52.514;5.722;2023-08-21T13:30:40;2.92;;;0.57;;
78885;SDS011;68269;52.514;5.722;2023-08-21T13:33:09;5.53;;;0.80;;
78885;SDS011;68269;52.514;5.722;2023-08-21T13:35:41;2.72;;;0.55;;
78885;SDS011;68269;52.514;5.722;2023-08-21T13:38:10;3.33;;;0.40;;
78885;SDS011;68269;52.514;5.722;2023-08-21T13:40:41;3.67;;;0.65;;
78885;SDS011;68269;52.514;5.722;2023-08-21T13:43:10;3.47;;;0.57;;
78885;SDS011;68269;52.514;5.722;2023-08-21T13:45:39;2.45;;;0.50;;
78885;SDS011;68269;52.514;5.722;2023-08-21T13:48:09;3.28;;;0.55;;
78885;SDS011;68269;52.514;5.722;2023-08-21T13:50:41;3.03;;;0.45;;
78885;SDS011;68269;52.514;5.722;2023-08-21T13:53:10;1.70;;;0.30;;
78885;SDS011;68269;52.514;5.722;2023-08-21T13:55:39;3.75;;;0.50;;
78885;SDS011;68269;52.514;5.722;2023-08-21T13:58:08;7.97;;;0.50;;
78885;SDS011;68269;52.514;5.722;2023-08-21T14:00:38;3.45;;;0.57;;
78885;SDS011;68269;52.514;5.722;2023-08-21T14:03:07;3.80;;;0.70;;
78885;SDS011;68269;52.514;5.722;2023-08-21T14:05:36;4.70;;;0.40;;
78885;SDS011;68269;52.514;5.722;2023-08-21T14:08:08;4.10;;;0.68;;
78885;SDS011;68269;52.514;5.722;2023-08-21T14:10:37;4.20;;;0.35;;
78885;SDS011;68269;52.514;5.722;2023-08-21T14:13:07;3.13;;;0.40;;
78885;SDS011;68269;52.514;5.722;2023-08-21T14:15:37;4.88;;;0.57;;
78885;SDS011;68269;52.514;5.722;2023-08-21T14:18:06;4.22;;;0.65;;
78885;SDS011;68269;52.514;5.722;2023-08-21T14:20:35;6.40;;;1.00;;
78885;SDS011;68269;52.514;5.722;2023-08-21T14:23:07;2.50;;;0.40;;
78885;SDS011;68269;52.514;5.722;2023-08-21T14:25:37;3.25;;;0.60;;
78885;SDS011;68269;52.514;5.722;2023-08-21T14:28:06;5.85;;;0.52;;
78885;SDS011;68269;52.514;5.722;2023-08-21T14:30:36;7.32;;;0.77;;
78885;SDS011;68269;52.514;5.722;2023-08-21T14:33:05;4.25;;;0.63;;
78885;SDS011;68269;52.514;5.722;2023-08-21T14:35:34;4.30;;;0.50;;
78885;SDS011;68269;52.514;5.722;2023-08-21T14:38:03;6.68;;;0.50;;
78885;SDS011;68269;52.514;5.722;2023-08-21T14:40:36;4.38;;;0.63;;
78885;SDS011;68269;52.514;5.722;2023-08-21T14:43:05;2.70;;;0.40;;
78885;SDS011;68269;52.514;5.722;2023-08-21T14:45:34;4.70;;;0.50;;
78885;SDS011;68269;52.514;5.722;2023-08-21T14:48:04;2.15;;;0.47;;
78885;SDS011;68269;52.514;5.722;2023-08-21T14:50:33;5.47;;;0.50;;
78885;SDS011;68269;52.514;5.722;2023-08-21T14:53:03;3.25;;;0.57;;
78885;SDS011;68269;52.514;5.722;2023-08-21T14:55:32;3.63;;;0.75;;
78885;SDS011;68269;52.514;5.722;2023-08-21T14:58:04;4.43;;;0.43;;
78885;SDS011;68269;52.514;5.722;2023-08-21T15:00:35;0.80;;;0.40;;
78885;SDS011;68269;52.514;5.722;2023-08-21T15:03:04;4.63;;;0.52;;
78885;SDS011;68269;52.514;5.722;2023-08-21T15:05:33;4.45;;;0.50;;
78885;SDS011;68269;52.514;5.722;2023-08-21T15:08:03;3.78;;;0.65;;
78885;SDS011;68269;52.514;5.722;2023-08-21T15:10:32;3.97;;;0.52;;
78885;SDS011;68269;52.514;5.722;2023-08-21T15:13:04;4.93;;;0.50;;